Time;durP1;ratioP1;P1;durP2;ratioP2;P2;SDS_P1;SDS_P2;PMS_P1;PMS_P2;Temp;Humidity;BMP_temperature;BMP_pressure;BME280_temperature;BME280_humidity;BME280_pressure;Samples;Min_cycle;Max_cycle;Signal;HPM_P1;HPM_P2
2021/09/19 00:01:21;;;;;;;0.20;0.20;;;12.60;99.90;;;;;;5017285;28;20057;-74
2021/09/19 00:03:47;;;;;;;0.20;0.20;;;12.50;99.90;;;;;;5017528;28;20030;-74
2021/09/19 00:06:13;;;;;;;0.10;0.10;;;12.40;99.90;;;;;;5034949;28;20018;-74
2021/09/19 00:08:39;;;;;;;0.20;0.20;;;12.50;99.90;;;;;;5017511;28;20040;-74
2021/09/19 00:11:05;;;;;;;0.20;0.20;;;12.40;99.90;;;;;;5017275;28;20029;-74
2021/09/19 00:13:31;;;;;;;0.52;0.40;;;12.50;99.90;;;;;;5017461;28;20025;-74
2021/09/19 00:15:57;;;;;;;0.20;0.20;;;12.50;99.90;;;;;;5016857;28;20025;-74
2021/09/19 00:18:22;;;;;;;0.20;0.20;;;12.60;99.90;;;;;;5017213;28;20044;-74
2021/09/19 00:20:48;;;;;;;0.10;0.10;;;12.70;99.90;;;;;;5017158;28;20021;-74
2021/09/19 00:23:14;;;;;;;0.10;0.10;;;12.80;99.90;;;;;;5016873;28;20033;-74
2021/09/19 00:25:40;;;;;;;0.10;0.10;;;12.90;99.90;;;;;;5034779;28;20498;-73
2021/09/19 00:28:07;;;;;;;0.10;0.10;;;12.90;99.90;;;;;;5034631;28;20022;-73
2021/09/19 00:30:33;;;;;;;0.85;0.85;;;12.90;99.90;;;;;;5034708;28;20102;-74
2021/09/19 00:32:59;;;;;;;0.10;0.10;;;12.90;99.90;;;;;;5016799;28;20032;-74
2021/09/19 00:35:26;;;;;;;0.10;0.10;;;12.80;99.90;;;;;;5034521;28;20473;-74
2021/09/19 00:37:53;;;;;;;0.20;0.20;;;13.00;99.90;;;;;;5034460;28;20054;-74
2021/09/19 00:40:19;;;;;;;0.32;0.32;;;13.00;99.90;;;;;;5000386;28;20393;-74
2021/09/19 00:42:45;;;;;;;0.10;0.10;;;12.90;99.90;;;;;;5034357;28;20036;-74
2021/09/19 00:45:14;;;;;;;0.20;0.20;;;12.90;99.90;;;;;;5016556;28;20022;-74
2021/09/19 00:47:41;;;;;;;0.10;0.10;;;12.70;99.90;;;;;;5034420;28;20377;-74
2021/09/19 00:50:09;;;;;;;0.20;0.20;;;12.70;99.90;;;;;;5000243;28;20516;-74
2021/09/19 00:52:37;;;;;;;0.17;0.17;;;12.70;99.90;;;;;;5016556;28;20025;-74
2021/09/19 00:55:04;;;;;;;0.20;0.20;;;12.60;99.90;;;;;;5016560;28;20029;-74
2021/09/19 00:57:31;;;;;;;0.10;0.10;;;12.60;99.90;;;;;;5034547;28;20064;-74
2021/09/19 00:59:57;;;;;;;0.15;0.15;;;12.50;99.90;;;;;;5016347;28;20029;-74
2021/09/19 01:02:23;;;;;;;0.68;0.68;;;12.60;99.90;;;;;;5034031;28;20040;-74
2021/09/19 01:04:49;;;;;;;0.20;0.20;;;12.70;99.90;;;;;;4999881;28;20481;-74
2021/09/19 01:07:15;;;;;;;2.28;2.15;;;12.70;99.90;;;;;;5015936;28;20091;-73
2021/09/19 01:09:42;;;;;;;0.10;0.10;;;12.50;99.90;;;;;;5016179;28;20116;-74
2021/09/19 01:12:10;;;;;;;0.55;0.55;;;12.40;99.90;;;;;;5016035;28;20079;-74
2021/09/19 01:14:41;;;;;;;0.10;0.10;;;12.50;99.90;;;;;;5033941;28;20465;-73
2021/09/19 01:17:08;;;;;;;0.20;0.20;;;12.30;99.90;;;;;;5033786;28;20294;-74
2021/09/19 01:19:36;;;;;;;0.10;0.10;;;12.40;99.90;;;;;;5033748;28;20034;-74
2021/09/19 01:22:03;;;;;;;0.10;0.10;;;12.50;99.90;;;;;;5015996;28;20148;-74
2021/09/19 01:24:29;;;;;;;0.20;0.20;;;12.50;99.90;;;;;;5033695;28;20022;-74
2021/09/19 01:26:55;;;;;;;0.15;0.15;;;12.50;99.90;;;;;;5033787;28;20041;-74
2021/09/19 01:29:21;;;;;;;0.20;0.20;;;12.60;99.90;;;;;;5033471;28;20029;-74
2021/09/19 01:31:47;;;;;;;0.10;0.10;;;12.60;99.90;;;;;;5033650;28;20096;-74
2021/09/19 01:34:13;;;;;;;0.20;0.20;;;12.70;99.90;;;;;;5015840;28;20392;-74
2021/09/19 01:36:40;;;;;;;0.35;0.35;;;12.70;99.90;;;;;;5033458;28;20031;-74
2021/09/19 01:39:07;;;;;;;0.63;0.63;;;12.70;99.90;;;;;;5033238;28;20104;-74
2021/09/19 01:41:35;;;;;;;0.17;0.17;;;12.60;99.90;;;;;;5033409;28;20030;-74
2021/09/19 01:44:02;;;;;;;0.10;0.10;;;12.60;99.90;;;;;;5015572;28;20072;-74
2021/09/19 01:46:28;;;;;;;0.17;0.17;;;12.50;99.90;;;;;;5032708;28;20538;-74
2021/09/19 01:48:53;;;;;;;0.10;0.10;;;12.40;99.90;;;;;;5015524;28;20017;-74
2021/09/19 01:51:19;;;;;;;0.20;0.20;;;12.40;99.90;;;;;;5033216;28;20022;-74
2021/09/19 01:53:45;;;;;;;0.20;0.20;;;12.50;99.90;;;;;;5033044;28;20021;-74
2021/09/19 01:56:11;;;;;;;5.15;4.75;;;12.50;99.90;;;;;;4998993;28;20032;-74
2021/09/19 01:58:46;;;;;;;0.17;0.17;;;12.40;99.90;;;;;;5015090;28;20071;-74
2021/09/19 02:01:12;;;;;;;0.10;0.10;;;12.30;99.90;;;;;;4999079;28;20029;-74
2021/09/19 02:03:39;;;;;;;0.10;0.10;;;12.30;99.90;;;;;;5032839;28;20029;-74
2021/09/19 02:06:07;;;;;;;0.10;0.10;;;12.40;99.90;;;;;;5032787;28;20156;-74
2021/09/19 02:08:36;;;;;;;0.13;0.13;;;12.40;99.90;;;;;;5014884;28;20025;-74
2021/09/19 02:11:07;;;;;;;0.10;0.10;;;12.30;99.90;;;;;;5015301;28;20021;-74
2021/09/19 02:13:34;;;;;;;0.20;0.20;;;12.40;99.90;;;;;;5015041;28;20045;-74
2021/09/19 02:16:00;;;;;;;0.20;0.20;;;12.50;99.90;;;;;;5015001;28;20037;-74
2021/09/19 02:18:26;;;;;;;0.20;0.20;;;12.40;99.90;;;;;;4998506;28;20083;-74
2021/09/19 02:20:52;;;;;;;0.10;0.10;;;12.40;99.90;;;;;;5032676;28;20029;-74
2021/09/19 02:23:18;;;;;;;0.20;0.20;;;12.30;99.90;;;;;;5032463;28;20477;-74
2021/09/19 02:25:43;;;;;;;0.20;0.20;;;12.30;99.90;;;;;;5032693;28;20014;-74
2021/09/19 02:28:10;;;;;;;0.10;0.10;;;12.20;99.90;;;;;;4998269;28;20026;-74
2021/09/19 02:30:36;;;;;;;0.10;0.10;;;12.30;99.90;;;;;;5014762;28;20032;-74
2021/09/19 02:33:02;;;;;;;22.17;1.23;;;12.40;99.90;;;;;;5014741;28;20100;-74
2021/09/19 02:35:27;;;;;;;0.20;0.20;;;12.40;99.90;;;;;;5014643;28;20075;-74
2021/09/19 02:37:53;;;;;;;0.20;0.20;;;12.30;99.90;;;;;;4998232;28;20095;-74
2021/09/19 02:40:19;;;;;;;0.13;0.13;;;12.20;99.90;;;;;;4998184;28;20112;-74
2021/09/19 02:42:46;;;;;;;0.73;0.73;;;12.30;99.90;;;;;;5032431;28;20029;-74
2021/09/19 02:45:12;;;;;;;0.10;0.10;;;12.40;99.90;;;;;;5032124;28;20071;-74
2021/09/19 02:47:38;;;;;;;0.10;0.10;;;12.50;99.90;;;;;;5014624;28;20021;-74
2021/09/19 02:50:07;;;;;;;0.20;0.20;;;12.50;99.90;;;;;;5014493;28;20033;-74
2021/09/19 02:52:33;;;;;;;0.20;0.20;;;12.50;99.90;;;;;;5014403;28;20037;-74
2021/09/19 02:54:59;;;;;;;0.10;0.10;;;12.40;99.90;;;;;;5031951;28;20151;-74
2021/09/19 02:57:24;;;;;;;0.20;0.20;;;12.40;99.90;;;;;;5031158;28;20171;-74
2021/09/19 02:59:50;;;;;;;0.13;0.13;;;12.20;99.90;;;;;;5032175;28;20100;-74
2021/09/19 03:02:16;;;;;;;0.20;0.20;;;12.30;99.90;;;;;;5014213;28;20496;-74
2021/09/19 03:04:42;;;;;;;0.13;0.13;;;12.10;99.90;;;;;;5013999;28;20102;-74
2021/09/19 03:07:07;;;;;;;0.20;0.20;;;12.10;99.90;;;;;;5014267;28;20520;-73
2021/09/19 03:09:33;;;;;;;0.20;0.20;;;12.00;99.90;;;;;;5031978;28;20025;-74
2021/09/19 03:11:59;;;;;;;0.20;0.20;;;11.70;99.90;;;;;;5014282;28;20029;-74
2021/09/19 03:14:25;;;;;;;0.20;0.20;;;11.50;99.90;;;;;;5031747;28;20467;-74
2021/09/19 03:16:50;;;;;;;0.10;0.10;;;11.50;99.90;;;;;;5031804;28;20026;-74
2021/09/19 03:19:16;;;;;;;0.60;0.60;;;11.30;99.90;;;;;;4997612;28;20032;-74
2021/09/19 03:21:42;;;;;;;0.10;0.10;;;11.30;99.90;;;;;;5031826;28;20384;-74
2021/09/19 03:24:07;;;;;;;0.20;0.20;;;11.40;99.90;;;;;;5031726;28;20030;-74
2021/09/19 03:26:33;;;;;;;0.30;0.30;;;11.40;99.90;;;;;;5013854;28;20021;-74
2021/09/19 03:28:59;;;;;;;0.20;0.20;;;11.20;99.90;;;;;;5013934;28;20136;-74
2021/09/19 03:31:25;;;;;;;0.20;0.20;;;11.00;99.90;;;;;;5031719;28;20026;-74
2021/09/19 03:33:50;;;;;;;0.20;0.20;;;11.00;99.90;;;;;;5013914;28;20021;-74
2021/09/19 03:36:16;;;;;;;0.17;0.17;;;10.90;99.90;;;;;;5031667;28;20029;-74
2021/09/19 03:38:42;;;;;;;0.13;0.13;;;10.90;99.90;;;;;;5013940;28;20022;-74
2021/09/19 03:41:07;;;;;;;0.20;0.20;;;10.80;99.90;;;;;;5013924;28;20025;-74
2021/09/19 03:43:33;;;;;;;0.20;0.20;;;10.90;99.90;;;;;;5031660;28;20393;-74
2021/09/19 03:45:59;;;;;;;0.20;0.20;;;10.90;99.90;;;;;;5031543;28;20027;-74
2021/09/19 03:48:25;;;;;;;0.52;0.52;;;11.00;99.90;;;;;;5031444;28;20038;-74
2021/09/19 03:50:50;;;;;;;0.20;0.20;;;11.10;99.90;;;;;;5013676;28;20048;-74
2021/09/19 03:53:16;;;;;;;0.10;0.10;;;11.10;99.90;;;;;;5031708;28;20029;-74
2021/09/19 03:55:42;;;;;;;0.20;0.20;;;11.20;99.90;;;;;;5031325;28;20536;-74
2021/09/19 03:58:08;;;;;;;0.20;0.20;;;11.20;99.90;;;;;;4997409;28;20503;-74
2021/09/19 04:00:33;;;;;;;0.20;0.20;;;11.20;99.90;;;;;;5031563;28;20064;-74
2021/09/19 04:02:59;;;;;;;0.20;0.20;;;11.20;99.90;;;;;;5013710;28;20046;-74
2021/09/19 04:05:25;;;;;;;0.25;0.25;;;11.30;99.90;;;;;;4997525;28;20112;-73
2021/09/19 04:07:51;;;;;;;0.20;0.20;;;11.50;99.90;;;;;;5014267;28;20112;-74
2021/09/19 04:10:17;;;;;;;0.15;0.15;;;11.60;99.90;;;;;;5017299;28;20049;-74
2021/09/19 04:12:43;;;;;;;0.30;0.30;;;11.60;99.90;;;;;;5017598;28;20025;-74
2021/09/19 04:15:09;;;;;;;0.20;0.20;;;11.40;99.90;;;;;;5034881;28;20029;-74
2021/09/19 04:17:35;;;;;;;0.40;0.40;;;11.30;99.90;;;;;;5034868;28;20561;-74
2021/09/19 04:20:01;;;;;;;0.20;0.20;;;11.20;99.90;;;;;;5034938;28;20135;-74
2021/09/19 04:22:27;;;;;;;0.20;0.20;;;11.10;99.90;;;;;;5017236;28;20030;-74
2021/09/19 04:24:53;;;;;;;0.15;0.15;;;11.00;99.90;;;;;;5034689;28;20029;-74
2021/09/19 04:27:19;;;;;;;0.20;0.20;;;10.90;99.90;;;;;;5034843;28;20079;-74
2021/09/19 04:29:45;;;;;;;0.10;0.10;;;10.90;99.90;;;;;;5016952;28;20116;-74
2021/09/19 04:32:11;;;;;;;0.20;0.20;;;10.70;99.90;;;;;;5034672;28;20377;-74
2021/09/19 04:34:37;;;;;;;0.20;0.20;;;10.70;99.90;;;;;;5016773;28;20473;-74
2021/09/19 04:37:03;;;;;;;0.10;0.10;;;10.90;99.90;;;;;;5016902;28;20079;-74
2021/09/19 04:39:29;;;;;;;0.43;0.43;;;10.90;99.90;;;;;;5034637;28;20025;-74
2021/09/19 04:41:54;;;;;;;0.20;0.20;;;11.00;99.90;;;;;;5016858;28;20029;-74
2021/09/19 04:44:20;;;;;;;0.20;0.20;;;11.00;99.90;;;;;;5034472;28;20075;-74
2021/09/19 04:46:46;;;;;;;0.20;0.20;;;11.00;99.90;;;;;;5034219;28;20033;-74
2021/09/19 04:49:11;;;;;;;0.20;0.20;;;11.10;99.90;;;;;;5016824;28;20021;-74
2021/09/19 04:51:37;;;;;;;0.10;0.10;;;11.10;99.90;;;;;;5016439;28;20424;-74
2021/09/19 04:54:03;;;;;;;0.40;0.40;;;11.00;99.90;;;;;;5034428;28;20022;-74
2021/09/19 04:56:29;;;;;;;0.17;0.17;;;10.90;99.90;;;;;;5033996;28;20017;-74
2021/09/19 04:58:55;;;;;;;1.27;0.75;;;11.00;99.90;;;;;;5034250;28;20033;-74
2021/09/19 05:01:20;;;;;;;0.20;0.20;;;10.80;99.90;;;;;;5016171;28;20075;-73
2021/09/19 05:03:46;;;;;;;0.20;0.20;;;10.70;99.90;;;;;;5034037;28;20032;-74
2021/09/19 05:06:12;;;;;;;0.20;0.20;;;10.60;99.90;;;;;;5033893;28;20033;-74
2021/09/19 05:08:38;;;;;;;0.10;0.10;;;10.40;99.90;;;;;;5016168;28;20504;-74
2021/09/19 05:11:04;;;;;;;0.17;0.17;;;10.40;99.90;;;;;;5034238;28;20021;-74
2021/09/19 05:13:30;;;;;;;0.20;0.20;;;10.50;99.90;;;;;;5033960;28;20101;-74
2021/09/19 05:15:56;;;;;;;0.10;0.10;;;10.70;99.90;;;;;;5016002;28;20401;-74
2021/09/19 05:18:23;;;;;;;0.20;0.20;;;10.80;99.90;;;;;;5016206;28;20438;-74
2021/09/19 05:20:48;;;;;;;0.20;0.20;;;10.80;99.90;;;;;;5015063;28;20048;-74
2021/09/19 05:23:14;;;;;;;0.10;0.10;;;10.50;99.90;;;;;;5015889;28;20496;-74
2021/09/19 05:25:40;;;;;;;0.20;0.20;;;10.60;99.90;;;;;;5015734;28;20021;-74
2021/09/19 05:28:06;;;;;;;0.30;0.30;;;10.50;99.90;;;;;;5015866;28;20068;-74
2021/09/19 05:30:32;;;;;;;0.25;0.25;;;10.30;99.90;;;;;;5033635;28;20045;-74
2021/09/19 05:32:58;;;;;;;0.20;0.20;;;10.30;99.90;;;;;;5033867;28;20429;-73
2021/09/19 05:35:24;;;;;;;0.20;0.20;;;10.30;99.90;;;;;;5015827;28;20037;-74
2021/09/19 05:37:50;;;;;;;0.10;0.10;;;10.50;99.90;;;;;;5015721;28;20481;-74
2021/09/19 05:40:16;;;;;;;0.20;0.20;;;10.70;99.90;;;;;;5033418;28;20057;-74
2021/09/19 05:42:42;;;;;;;0.20;0.20;;;10.80;99.90;;;;;;5015718;28;20040;-73
2021/09/19 05:45:09;;;;;;;0.20;0.20;;;10.80;99.90;;;;;;5015390;28;20021;-74
2021/09/19 05:47:34;;;;;;;1.02;0.85;;;10.90;99.90;;;;;;5033020;28;20026;-74
2021/09/19 05:50:00;;;;;;;0.20;0.20;;;11.00;99.90;;;;;;5033195;28;20095;-74
2021/09/19 05:52:26;;;;;;;0.13;0.13;;;11.10;99.90;;;;;;4998920;28;20476;-74
2021/09/19 05:54:52;;;;;;;0.20;0.20;;;11.30;99.90;;;;;;5015180;28;20025;-73
2021/09/19 05:57:17;;;;;;;0.20;0.20;;;11.50;99.90;;;;;;5015275;28;20026;-74
2021/09/19 05:59:43;;;;;;;0.10;0.10;;;11.50;99.90;;;;;;5033052;28;20032;-74
2021/09/19 06:02:09;;;;;;;0.30;0.30;;;11.40;99.90;;;;;;5032941;28;20017;-74
2021/09/19 06:04:34;;;;;;;0.15;0.15;;;11.60;99.90;;;;;;5014994;28;20033;-74
2021/09/19 06:07:00;;;;;;;0.30;0.30;;;11.70;99.90;;;;;;5014988;28;20026;-73
2021/09/19 06:09:26;;;;;;;0.17;0.17;;;11.80;99.90;;;;;;5015116;28;20092;-73
2021/09/19 06:11:52;;;;;;;0.10;0.10;;;12.10;99.90;;;;;;5032745;28;20043;-74
2021/09/19 06:14:17;;;;;;;0.20;0.20;;;12.30;99.90;;;;;;5015123;28;20481;-74
2021/09/19 06:16:43;;;;;;;0.20;0.20;;;12.10;99.90;;;;;;5014629;28;20091;-74
2021/09/19 06:19:09;;;;;;;0.43;0.43;;;12.00;99.90;;;;;;5015064;28;20029;-74
2021/09/19 06:21:34;;;;;;;0.20;0.20;;;11.90;99.90;;;;;;5032531;28;20030;-74
2021/09/19 06:24:00;;;;;;;0.10;0.10;;;12.10;99.90;;;;;;5014881;28;20026;-74
2021/09/19 06:26:26;;;;;;;0.20;0.20;;;12.10;99.90;;;;;;4998306;28;20500;-74
2021/09/19 06:28:52;;;;;;;0.20;0.20;;;12.00;99.90;;;;;;5014749;28;20362;-74
2021/09/19 06:31:18;;;;;;;0.20;0.20;;;12.20;99.90;;;;;;5014674;28;20026;-74
2021/09/19 06:33:44;;;;;;;0.50;0.50;;;12.30;99.90;;;;;;5014704;28;20032;-74
2021/09/19 06:36:10;;;;;;;0.20;0.20;;;12.30;99.90;;;;;;5032260;28;20389;-74
2021/09/19 06:38:35;;;;;;;0.13;0.13;;;12.50;99.90;;;;;;5032198;28;20033;-74
2021/09/19 06:41:01;;;;;;;9.70;4.68;;;12.50;99.90;;;;;;5032201;28;20022;-74
2021/09/19 06:43:27;;;;;;;0.35;0.35;;;12.30;99.90;;;;;;5032212;28;20033;-74
2021/09/19 06:45:54;;;;;;;0.20;0.20;;;12.20;99.90;;;;;;5014472;28;20115;-74
2021/09/19 06:48:20;;;;;;;0.15;0.15;;;12.20;99.90;;;;;;5032120;28;20038;-74
2021/09/19 06:50:45;;;;;;;1.10;1.05;;;12.40;99.90;;;;;;5014309;28;20500;-74
2021/09/19 06:53:11;;;;;;;0.47;0.47;;;12.40;99.90;;;;;;5032034;28;20091;-74
2021/09/19 06:55:37;;;;;;;0.20;0.20;;;12.50;99.90;;;;;;5032019;28;20029;-74
2021/09/19 06:58:03;;;;;;;0.20;0.20;;;12.60;99.90;;;;;;5031770;28;20079;-74
2021/09/19 07:00:28;;;;;;;0.15;0.15;;;12.80;99.90;;;;;;5032110;28;20367;-74
2021/09/19 07:02:54;;;;;;;0.52;0.52;;;12.70;99.90;;;;;;5031980;28;20116;-74
2021/09/19 07:05:21;;;;;;;2.45;1.45;;;12.80;99.90;;;;;;5014027;28;20026;-74
2021/09/19 07:07:47;;;;;;;0.20;0.20;;;12.90;99.90;;;;;;5031714;28;20053;-74
2021/09/19 07:10:13;;;;;;;0.15;0.15;;;13.00;99.90;;;;;;5014343;28;20060;-74
2021/09/19 07:12:39;;;;;;;0.10;0.10;;;13.10;99.90;;;;;;5014302;28;20032;-74
2021/09/19 07:15:06;;;;;;;0.73;0.73;;;13.20;99.90;;;;;;5031697;28;20026;-74
2021/09/19 07:17:33;;;;;;;0.45;0.45;;;13.20;99.90;;;;;;5028724;28;20017;-74
2021/09/19 07:19:59;;;;;;;0.20;0.20;;;13.20;99.90;;;;;;5002086;28;20036;-74
2021/09/19 07:22:26;;;;;;;1.58;1.23;;;13.20;99.90;;;;;;5020685;28;20084;-74
2021/09/19 07:24:52;;;;;;;0.25;0.25;;;13.20;99.90;;;;;;4994177;28;20149;-74
2021/09/19 07:27:18;;;;;;;0.20;0.20;;;13.40;99.90;;;;;;5010304;28;20022;-74
2021/09/19 07:29:44;;;;;;;1.27;1.13;;;13.40;99.90;;;;;;5012042;28;20091;-74
2021/09/19 07:32:12;;;;;;;1.23;0.65;;;13.50;99.90;;;;;;4994647;28;20026;-74
2021/09/19 07:34:39;;;;;;;0.20;0.20;;;13.40;99.90;;;;;;5011636;28;20052;-74
2021/09/19 07:37:06;;;;;;;4.63;2.83;;;13.40;99.90;;;;;;4993982;28;20034;-74
2021/09/19 07:39:33;;;;;;;0.22;0.20;;;13.20;99.90;;;;;;5011900;28;20076;-74
2021/09/19 07:41:59;;;;;;;2.13;0.35;;;13.20;99.90;;;;;;4994589;28;20037;-74
2021/09/19 07:44:25;;;;;;;0.40;0.40;;;13.10;99.90;;;;;;5022872;28;20029;-75
2021/09/19 07:46:53;;;;;;;0.65;0.65;;;13.20;99.90;;;;;;5029481;28;20155;-74
2021/09/19 07:49:21;;;;;;;2.85;2.08;;;13.20;99.90;;;;;;4981906;28;20072;-73
2021/09/19 07:51:47;;;;;;;0.82;0.82;;;13.10;99.90;;;;;;5009042;28;20029;-74
2021/09/19 07:54:14;;;;;;;1.17;1.10;;;13.10;99.90;;;;;;5016101;28;20393;-74
2021/09/19 07:56:40;;;;;;;2.85;1.98;;;13.10;99.90;;;;;;5034948;28;20105;-74
2021/09/19 07:59:06;;;;;;;0.10;0.10;;;13.20;99.90;;;;;;5017374;28;20030;-74
2021/09/19 08:01:32;;;;;;;0.55;0.55;;;13.20;99.90;;;;;;5035283;28;20021;-74
2021/09/19 08:03:57;;;;;;;0.30;0.30;;;13.20;99.90;;;;;;5035032;28;20030;-74
2021/09/19 08:06:23;;;;;;;0.30;0.30;;;13.40;99.90;;;;;;5035040;28;20022;-74
2021/09/19 08:08:50;;;;;;;0.75;0.75;;;13.60;99.90;;;;;;5017415;28;20389;-74
2021/09/19 08:11:16;;;;;;;0.75;0.63;;;13.70;99.90;;;;;;5017357;28;20076;-74
2021/09/19 08:13:42;;;;;;;0.68;0.68;;;13.80;99.90;;;;;;5035041;28;20489;-74
2021/09/19 08:16:09;;;;;;;0.70;0.70;;;13.80;99.90;;;;;;5034825;28;20053;-74
2021/09/19 08:18:36;;;;;;;0.50;0.50;;;13.90;99.90;;;;;;5017041;28;20034;-74
2021/09/19 08:21:03;;;;;;;1.17;0.73;;;14.00;99.90;;;;;;5034957;28;20029;-73
2021/09/19 08:23:28;;;;;;;0.95;0.88;;;14.00;99.90;;;;;;5016942;28;20026;-73
2021/09/19 08:25:55;;;;;;;0.30;0.30;;;14.00;99.90;;;;;;5000474;28;20037;-74
2021/09/19 08:28:20;;;;;;;3.33;1.80;;;14.10;99.90;;;;;;5034638;28;20032;-74
2021/09/19 08:30:46;;;;;;;1.13;0.95;;;14.10;99.90;;;;;;5035061;28;20029;-74
2021/09/19 08:33:12;;;;;;;0.80;0.63;;;14.20;99.90;;;;;;5034592;28;20033;-74
2021/09/19 08:35:39;;;;;;;0.85;0.85;;;14.20;99.90;;;;;;5034399;28;20084;-74
2021/09/19 08:38:05;;;;;;;0.20;0.20;;;14.30;99.90;;;;;;5016615;28;20029;-74
2021/09/19 08:40:31;;;;;;;0.22;0.22;;;14.40;99.90;;;;;;5016684;28;20026;-74
2021/09/19 08:42:56;;;;;;;0.73;0.73;;;14.80;99.90;;;;;;5016588;28;20029;-74
2021/09/19 08:45:23;;;;;;;0.10;0.10;;;14.90;99.90;;;;;;5034253;28;20478;-74
2021/09/19 08:47:50;;;;;;;0.00;0.00;;;15.20;99.90;;;;;;5016768;28;20409;-74
2021/09/19 08:50:16;;;;;;;0.60;0.60;;;15.40;99.90;;;;;;5016767;28;20025;-74
2021/09/19 08:52:43;;;;;;;0.25;0.25;;;15.90;99.90;;;;;;5034215;28;20040;-75
2021/09/19 08:55:11;;;;;;;0.20;0.20;;;16.40;99.90;;;;;;5014935;28;20366;-76
2021/09/19 08:57:38;;;;;;;0.45;0.45;;;16.90;99.90;;;;;;5000243;28;20493;-75
2021/09/19 09:00:06;;;;;;;0.20;0.20;;;17.20;99.90;;;;;;5034215;28;20108;-75
2021/09/19 09:02:54;;;;;;;1.63;1.15;;;17.50;99.90;;;;;;5034059;28;20037;-75
2021/09/19 09:05:28;;;;;;;3.47;2.10;;;17.50;99.90;;;;;;5016296;28;20384;-75
2021/09/19 09:07:56;;;;;;;1.08;1.00;;;17.40;99.90;;;;;;5016273;28;20045;-75
2021/09/19 09:10:43;;;;;;;1.48;0.85;;;17.60;99.90;;;;;;5034042;28;20492;-76
2021/09/19 09:13:12;;;;;;;0.63;0.63;;;18.00;99.90;;;;;;5033958;28;20400;-74
2021/09/19 09:15:49;;;;;;;0.20;0.20;;;18.20;99.90;;;;;;5016109;28;20477;-76
2021/09/19 15:58:17;;;;;;;1.08;1.02;;;17.30;99.90;;;;;;5093186;27;20407;-77
2021/09/19 16:00:43;;;;;;;0.10;0.10;;;17.20;99.90;;;;;;5069542;28;20024;-77
2021/09/19 16:03:09;;;;;;;10.43;6.93;;;17.30;99.90;;;;;;5070955;28;20020;-77
2021/09/19 16:05:35;;;;;;;1.25;1.23;;;17.30;99.90;;;;;;5053000;28;20031;-78
2021/09/19 16:08:01;;;;;;;0.60;0.60;;;17.30;99.90;;;;;;5070977;28;20028;-78
2021/09/19 16:10:27;;;;;;;1.02;0.68;;;17.30;99.90;;;;;;5071092;28;20028;-76
2021/09/19 16:12:56;;;;;;;0.63;0.63;;;17.40;99.90;;;;;;5070962;28;20530;-77
2021/09/19 16:15:24;;;;;;;0.20;0.20;;;17.40;99.90;;;;;;5070496;28;20019;-77
2021/09/19 16:17:49;;;;;;;0.10;0.10;;;17.30;99.90;;;;;;5070827;28;20519;-77
2021/09/19 16:20:15;;;;;;;0.10;0.10;;;17.30;99.90;;;;;;5069479;28;20025;-77
2021/09/19 16:22:41;;;;;;;0.82;0.82;;;17.20;99.90;;;;;;5070191;28;20021;-77
2021/09/19 16:25:07;;;;;;;0.20;0.20;;;17.20;99.90;;;;;;5069688;28;20522;-77
2021/09/19 16:27:33;;;;;;;0.10;0.10;;;17.30;99.90;;;;;;5070392;28;20105;-78
2021/09/19 16:29:59;;;;;;;0.10;0.10;;;17.50;99.90;;;;;;5071794;28;20496;-77
2021/09/19 16:32:24;;;;;;;0.10;0.10;;;17.50;99.90;;;;;;5071605;28;20045;-78
2021/09/19 16:34:50;;;;;;;0.20;0.20;;;17.50;99.90;;;;;;5069561;28;20419;-78
2021/09/19 16:37:16;;;;;;;0.10;0.10;;;17.40;99.90;;;;;;5071565;28;20029;-77
2021/09/19 16:39:42;;;;;;;0.13;0.13;;;17.10;99.90;;;;;;5052992;28;20384;-78
2021/09/19 16:42:08;;;;;;;0.40;0.40;;;17.00;99.90;;;;;;5053299;28;20032;-77
2021/09/19 16:44:34;;;;;;;0.10;0.10;;;16.80;99.90;;;;;;5069496;28;20013;-77
2021/09/19 16:46:59;;;;;;;0.10;0.10;;;16.80;99.90;;;;;;5052912;28;20029;-77
2021/09/19 16:49:25;;;;;;;2.00;1.80;;;16.70;99.90;;;;;;5069485;28;20195;-77
2021/09/19 16:51:51;;;;;;;5.43;3.25;;;16.40;99.90;;;;;;5068367;28;20558;-77
2021/09/19 16:54:17;;;;;;;3.60;1.65;;;16.10;99.90;;;;;;5051222;28;20071;-76
2021/09/19 16:56:42;;;;;;;0.90;0.43;;;15.90;99.90;;;;;;5068445;28;20032;-76
2021/09/19 16:59:08;;;;;;;0.28;0.28;;;15.70;99.90;;;;;;5068463;28;20082;-77
2021/09/19 17:01:34;;;;;;;1.15;0.57;;;15.60;99.90;;;;;;5067233;28;20534;-77
2021/09/19 17:03:59;;;;;;;0.17;0.13;;;15.50;99.90;;;;;;5067087;28;20031;-77
2021/09/19 17:06:25;;;;;;;0.30;0.13;;;15.40;99.90;;;;;;5068527;28;20021;-78
2021/09/19 17:08:51;;;;;;;0.20;0.20;;;15.30;99.90;;;;;;5059907;28;20081;-78
2021/09/19 17:11:18;;;;;;;1.25;1.20;;;15.40;99.90;;;;;;5053886;28;20052;-76
2021/09/19 17:13:49;;;;;;;1.50;0.95;;;15.20;99.90;;;;;;5037132;28;20052;-76
2021/09/19 17:16:18;;;;;;;0.32;0.32;;;15.10;99.90;;;;;;5053067;28;20035;-77
2021/09/19 17:18:45;;;;;;;0.10;0.10;;;15.00;99.90;;;;;;5053456;28;20074;-76
2021/09/19 17:21:11;;;;;;;0.10;0.10;;;14.90;99.90;;;;;;5054668;28;20021;-76
2021/09/19 17:23:37;;;;;;;0.20;0.20;;;15.00;99.90;;;;;;5036635;28;20119;-77
2021/09/19 17:26:03;;;;;;;0.75;0.75;;;15.20;99.90;;;;;;5051837;28;20076;-77
2021/09/19 17:28:29;;;;;;;0.68;0.68;;;15.30;99.90;;;;;;5033410;28;20095;-76
2021/09/19 17:30:55;;;;;;;0.40;0.40;;;15.30;99.90;;;;;;5033430;28;20104;-76
2021/09/19 17:33:21;;;;;;;4.97;3.13;;;15.30;99.90;;;;;;5034464;28;20107;-77
2021/09/19 17:35:49;;;;;;;0.63;0.22;;;15.30;99.90;;;;;;5032983;28;20030;-77
2021/09/19 17:38:15;;;;;;;1.13;0.38;;;15.00;99.90;;;;;;5016311;28;20056;-76
2021/09/19 17:40:41;;;;;;;0.10;0.10;;;14.90;99.90;;;;;;5034159;28;20381;-76
2021/09/19 17:43:07;;;;;;;0.15;0.15;;;14.70;99.90;;;;;;5016669;28;20021;-77
2021/09/19 17:45:33;;;;;;;0.95;0.95;;;14.80;99.90;;;;;;5034202;28;20032;-76
2021/09/19 17:48:00;;;;;;;0.00;0.00;;;14.80;99.90;;;;;;5034190;28;20030;-76
2021/09/19 17:50:26;;;;;;;0.57;0.57;;;14.90;99.90;;;;;;5034178;28;20037;-77
2021/09/19 17:52:52;;;;;;;0.30;0.30;;;15.00;99.90;;;;;;5056810;23;20412;-74
2021/09/19 17:55:17;;;;;;;0.60;0.43;;;15.00;99.90;;;;;;5052090;28;20025;-74
2021/09/19 17:57:43;;;;;;;0.30;0.30;;;15.00;99.90;;;;;;5043961;28;20032;-74
2021/09/19 18:00:10;;;;;;;0.47;0.47;;;14.90;99.90;;;;;;5052172;28;20029;-74
2021/09/19 18:02:36;;;;;;;0.10;0.10;;;14.90;99.90;;;;;;5052312;28;20029;-73
2021/09/19 18:05:02;;;;;;;0.35;0.32;;;14.80;99.90;;;;;;5052045;28;20024;-74
2021/09/19 18:07:28;;;;;;;0.38;0.38;;;14.80;99.90;;;;;;5053431;28;20107;-74
2021/09/19 18:09:53;;;;;;;0.10;0.10;;;14.70;99.90;;;;;;5052323;28;20059;-74
2021/09/19 18:12:19;;;;;;;0.40;0.40;;;14.70;99.90;;;;;;5052190;28;20041;-74
2021/09/19 18:14:45;;;;;;;0.40;0.40;;;14.70;99.90;;;;;;5051841;28;20372;-74
2021/09/19 18:17:10;;;;;;;0.80;0.80;;;14.60;99.90;;;;;;5053231;28;20091;-74
2021/09/19 18:19:36;;;;;;;0.25;0.25;;;14.60;99.90;;;;;;5062212;28;20036;-74
2021/09/19 18:22:03;;;;;;;0.63;0.57;;;14.50;99.90;;;;;;5060004;28;20025;-73
2021/09/19 18:24:29;;;;;;;0.10;0.10;;;14.30;99.90;;;;;;5053168;28;20100;-74
2021/09/19 18:26:54;;;;;;;0.60;0.57;;;14.10;99.90;;;;;;5053040;28;20028;-74
2021/09/19 18:29:21;;;;;;;0.10;0.10;;;14.00;99.90;;;;;;5052963;28;20031;-74
2021/09/19 18:31:46;;;;;;;0.10;0.10;;;14.00;99.90;;;;;;5053240;28;20033;-74
2021/09/19 18:34:12;;;;;;;0.10;0.10;;;14.10;99.90;;;;;;5059105;28;20090;-74
2021/09/19 18:36:38;;;;;;;0.17;0.17;;;14.00;99.90;;;;;;5072559;28;20032;-74
2021/09/19 18:39:05;;;;;;;0.10;0.10;;;14.10;99.90;;;;;;5071621;28;20020;-74
2021/09/19 18:41:30;;;;;;;0.20;0.20;;;14.10;99.90;;;;;;5071734;28;20059;-76
2021/09/19 18:43:56;;;;;;;0.10;0.10;;;13.90;99.90;;;;;;5071526;28;20060;-74
2021/09/19 18:46:22;;;;;;;0.25;0.25;;;13.70;99.90;;;;;;5072349;28;20052;-74
2021/09/19 18:48:48;;;;;;;0.10;0.10;;;13.50;99.90;;;;;;5054689;28;20476;-74
2021/09/19 18:51:14;;;;;;;0.10;0.10;;;13.50;99.90;;;;;;5066575;28;20033;-73
2021/09/19 18:53:40;;;;;;;0.20;0.20;;;13.50;99.90;;;;;;5052670;28;20047;-74
2021/09/19 18:56:08;;;;;;;0.17;0.17;;;13.40;99.90;;;;;;5051095;28;20025;-74
2021/09/19 18:58:34;;;;;;;0.10;0.10;;;13.40;99.90;;;;;;5051078;28;20090;-74
2021/09/19 19:01:00;;;;;;;0.08;0.08;;;13.30;99.90;;;;;;5034495;28;20025;-74
2021/09/19 19:03:27;;;;;;;0.10;0.10;;;13.30;99.90;;;;;;5055538;28;20023;-74
2021/09/19 19:05:54;;;;;;;0.10;0.10;;;13.40;99.90;;;;;;5054243;28;20108;-73
2021/09/19 19:08:20;;;;;;;0.10;0.10;;;13.30;99.90;;;;;;5052351;28;20055;-73
2021/09/19 19:10:46;;;;;;;0.30;0.30;;;13.50;99.90;;;;;;5054872;28;20016;-74
2021/09/19 19:13:15;;;;;;;4.20;1.08;;;13.50;99.90;;;;;;5072074;28;20024;-74
2021/09/19 19:15:42;;;;;;;0.20;0.20;;;13.40;99.90;;;;;;5070711;28;20020;-74
2021/09/19 19:18:08;;;;;;;0.10;0.10;;;13.30;99.90;;;;;;5072059;28;20028;-74
2021/09/19 19:20:35;;;;;;;0.08;0.08;;;13.30;99.90;;;;;;5056266;28;20431;-74
2021/09/19 19:23:02;;;;;;;0.20;0.20;;;13.30;99.90;;;;;;5051968;28;20017;-73